createdAt,value
2018-04-10T00:02:20.704Z,3.93
2018-04-10T00:04:48.283Z,3.87
2018-04-10T00:07:15.800Z,4.20
2018-04-10T00:09:44.119Z,3.97
2018-04-10T00:12:11.636Z,4.30
2018-04-10T00:14:39.919Z,3.77
2018-04-10T00:17:09.437Z,3.33
2018-04-10T00:19:36.962Z,4.20
2018-04-10T00:22:04.520Z,3.60
2018-04-10T00:24:32.865Z,4.23
2018-04-10T00:27:00.421Z,4.60
2018-04-10T00:29:27.951Z,3.60
2018-04-10T00:31:55.472Z,4.00
2018-04-10T00:34:23.790Z,3.47
2018-04-10T00:36:51.312Z,3.63
2018-04-10T00:39:19.628Z,3.83
2018-04-10T00:41:47.216Z,3.80
2018-04-10T00:44:14.739Z,3.90
2018-04-10T00:46:44.227Z,4.30
2018-04-10T00:49:11.769Z,4.97
2018-04-10T00:51:42.048Z,3.33
2018-04-10T00:54:09.562Z,3.80
2018-04-10T00:56:37.841Z,4.00
2018-04-10T00:59:07.317Z,3.40
2018-04-10T01:01:34.840Z,3.80
2018-04-10T01:04:04.326Z,3.73
2018-04-10T01:06:31.858Z,4.50
2018-04-10T01:09:01.357Z,3.83
2018-04-10T01:11:28.891Z,3.57
2018-04-10T01:13:56.440Z,4.27
2018-04-10T01:16:23.989Z,4.80
2018-04-10T01:18:51.518Z,4.10
2018-04-10T01:21:19.062Z,3.47
2018-04-10T01:23:47.356Z,5.30
2018-04-10T01:26:14.888Z,4.40
2018-04-10T01:28:45.156Z,4.17
2018-04-10T01:31:12.677Z,4.35
2018-04-10T01:33:40.245Z,3.93
2018-04-10T01:36:07.764Z,4.07
2018-04-10T01:38:35.289Z,3.90
2018-04-10T01:41:02.849Z,3.90
2018-04-10T01:43:30.369Z,4.10
2018-04-10T01:45:57.920Z,3.80
2018-04-10T01:48:26.200Z,3.47
2018-04-10T01:50:54.498Z,4.23
2018-04-10T01:53:22.041Z,3.77
2018-04-10T01:55:49.560Z,4.00
2018-04-10T01:58:17.107Z,3.70
2018-04-10T02:00:44.639Z,5.80
2018-04-10T02:03:12.173Z,4.67
2018-04-10T02:05:40.494Z,4.63
2018-04-10T02:08:08.020Z,4.33
2018-04-10T02:10:35.565Z,4.00
2018-04-10T02:19:02.552Z,3.50
2018-04-10T02:21:32.019Z,3.77
2018-04-10T02:23:59.532Z,3.77
2018-04-10T02:26:27.284Z,4.07
2018-04-10T02:28:55.581Z,3.53
2018-04-10T02:31:23.144Z,3.60
2018-04-10T02:33:50.660Z,3.73
2018-04-10T02:36:18.955Z,4.40
2018-04-10T02:38:46.513Z,3.80
2018-04-10T02:41:14.032Z,3.60
2018-04-10T02:43:43.510Z,3.97
2018-04-10T02:46:11.033Z,3.87
2018-04-10T02:48:40.520Z,4.27
2018-04-10T02:51:08.069Z,4.27
2018-04-10T02:53:36.418Z,3.53
2018-04-10T02:56:03.975Z,4.63
2018-04-10T02:58:31.488Z,8.20
2018-04-10T03:00:59.060Z,5.50
2018-04-10T03:03:26.572Z,4.00
2018-04-10T03:05:54.127Z,4.10
2018-04-10T03:08:21.644Z,3.90
2018-04-10T03:10:49.192Z,3.63
2018-04-10T03:13:16.708Z,3.47
2018-04-10T03:15:45.188Z,3.20
2018-04-10T03:18:13.506Z,3.67
2018-04-10T03:20:41.032Z,3.40
2018-04-10T03:23:08.564Z,3.77
2018-04-10T03:25:36.081Z,3.33
2018-04-10T03:28:03.631Z,3.50
2018-04-10T03:30:31.146Z,3.50
2018-04-10T03:32:58.696Z,3.27
2018-04-10T03:35:26.234Z,2.90
2018-04-10T03:37:53.753Z,2.93
2018-04-10T03:40:22.064Z,3.03
2018-04-10T03:42:49.576Z,2.97
2018-04-10T03:45:17.116Z,3.40
2018-04-10T03:47:44.633Z,2.70
2018-04-10T03:50:12.149Z,2.40
2018-04-10T03:52:39.687Z,2.77
2018-04-10T03:55:07.207Z,2.60
2018-04-10T03:57:34.748Z,2.53
2018-04-10T04:00:02.305Z,2.90
2018-04-10T04:02:29.801Z,2.67
2018-04-10T04:04:57.350Z,3.20
2018-04-10T04:07:24.877Z,3.60
2018-04-10T04:09:53.185Z,3.40
2018-04-10T04:12:20.698Z,3.53
2018-04-10T04:14:48.209Z,3.57
2018-04-10T04:17:27.640Z,3.63
2018-04-10T04:20:07.907Z,3.23
2018-04-10T04:22:39.292Z,3.83
2018-04-10T04:25:06.816Z,4.40
2018-04-10T04:27:34.364Z,4.90
2018-04-10T04:30:01.887Z,4.77
2018-04-10T04:32:30.172Z,4.53
2018-04-10T04:34:57.714Z,4.60
2018-04-10T04:37:26.007Z,4.90
2018-04-10T04:39:54.320Z,5.10
2018-04-10T04:42:21.855Z,4.63
2018-04-10T04:44:50.340Z,4.63
2018-04-10T04:47:17.889Z,4.13
2018-04-10T04:49:45.411Z,5.03
2018-04-10T04:52:12.952Z,5.00
2018-04-10T04:54:40.464Z,5.13
2018-04-10T04:57:07.984Z,4.30
2018-04-10T04:59:35.551Z,4.33
2018-04-10T05:02:03.089Z,4.53
2018-04-10T05:04:30.633Z,3.70
2018-04-10T05:06:58.148Z,3.83
2018-04-10T05:09:25.674Z,3.80
2018-04-10T05:11:53.233Z,4.73
2018-04-10T05:14:21.532Z,3.20
2018-04-10T05:16:49.088Z,4.20
2018-04-10T05:19:16.612Z,4.80
2018-04-10T05:21:44.128Z,3.33
2018-04-10T05:24:11.695Z,4.57
2018-04-10T05:26:39.220Z,3.85
2018-04-10T05:29:06.780Z,3.80
2018-04-10T05:31:35.079Z,4.23
2018-04-10T05:34:02.620Z,4.40
2018-04-10T05:36:30.188Z,3.70
2018-04-10T05:38:57.731Z,4.70
2018-04-10T05:41:25.288Z,4.67
2018-04-10T05:43:52.812Z,3.83
2018-04-10T05:46:20.353Z,4.67
2018-04-10T05:48:47.892Z,4.40
2018-04-10T05:51:15.412Z,4.20
2018-04-10T05:53:42.957Z,5.20
2018-04-10T05:56:10.469Z,5.00
2018-04-10T05:58:38.011Z,5.27
2018-04-10T06:01:07.287Z,5.30
2018-04-10T06:03:34.809Z,4.80
2018-04-10T06:06:02.367Z,4.40
2018-04-10T06:08:29.888Z,4.57
2018-04-10T06:10:57.439Z,4.57
2018-04-10T06:13:24.979Z,4.93
2018-04-10T06:15:52.531Z,4.60
2018-04-10T06:18:20.089Z,4.30
2018-04-10T06:20:48.379Z,4.60
2018-04-10T06:23:15.898Z,4.63
2018-04-10T06:25:43.455Z,4.50
2018-04-10T06:28:10.972Z,4.80
2018-04-10T06:30:38.515Z,4.40
2018-04-10T06:33:06.044Z,4.27
2018-04-10T06:35:33.632Z,4.60
2018-04-10T06:38:01.158Z,4.67
2018-04-10T06:40:28.677Z,3.90
2018-04-10T06:42:56.224Z,4.30
2018-04-10T06:45:24.527Z,5.07
2018-04-10T06:47:52.079Z,5.20
2018-04-10T06:50:19.605Z,5.13
2018-04-10T06:52:47.136Z,6.17
2018-04-10T06:55:14.682Z,5.37
2018-04-10T06:57:42.249Z,4.90
2018-04-10T07:00:09.795Z,5.10
2018-04-10T07:02:37.332Z,4.70
2018-04-10T07:05:04.864Z,4.83
2018-04-10T07:07:32.421Z,5.27
2018-04-10T07:09:59.954Z,5.80
2018-04-10T07:12:27.516Z,5.33
2018-04-10T07:14:55.046Z,4.30
2018-04-10T07:17:22.572Z,5.03
2018-04-10T07:19:52.064Z,4.43
2018-04-10T07:22:20.352Z,4.63
2018-04-10T07:24:47.914Z,4.50
2018-04-10T07:27:15.437Z,4.60
2018-04-10T07:29:42.972Z,5.50
2018-04-10T07:32:10.529Z,4.83
2018-04-10T07:34:38.053Z,5.23
2018-04-10T07:37:05.645Z,5.03
2018-04-10T07:39:33.180Z,4.80
2018-04-10T07:42:01.646Z,4.70
2018-04-10T07:44:29.968Z,5.10
2018-04-10T07:46:58.628Z,5.07
2018-04-10T07:49:26.183Z,4.93
2018-04-10T07:51:53.708Z,4.40
2018-04-10T07:54:23.200Z,4.50
2018-04-10T07:56:50.728Z,4.57
2018-04-10T07:59:18.357Z,5.03
2018-04-10T08:01:46.236Z,4.90
2018-04-10T08:04:14.733Z,6.10
2018-04-10T08:06:42.289Z,6.03
2018-04-10T08:09:09.813Z,6.20
2018-04-10T08:11:37.360Z,5.87
2018-04-10T08:14:04.891Z,5.53
2018-04-10T08:16:32.455Z,5.07
2018-04-10T08:19:00.005Z,5.83
2018-04-10T08:21:27.528Z,4.43
2018-04-10T08:23:55.137Z,5.10
2018-04-10T08:26:23.617Z,5.40
2018-04-10T08:28:51.190Z,5.33
2018-04-10T08:31:19.481Z,7.73
2018-04-10T08:33:47.775Z,6.77
2018-04-10T08:36:15.328Z,6.00
2018-04-10T08:38:42.844Z,6.80
2018-04-10T08:41:10.392Z,6.00
2018-04-10T08:43:37.904Z,7.30
2018-04-10T08:46:05.473Z,6.97
2018-04-10T08:48:33.969Z,7.60
2018-04-10T08:51:01.488Z,6.47
2018-04-10T08:53:29.805Z,7.10
2018-04-10T08:55:57.336Z,6.13
2018-04-10T08:58:25.853Z,6.77
2018-04-10T09:00:53.389Z,7.23
2018-04-10T09:03:22.884Z,7.03
2018-04-10T09:05:50.407Z,8.63
2018-04-10T09:08:17.975Z,8.87
2018-04-10T09:10:46.264Z,9.10
2018-04-10T09:13:13.812Z,8.73
2018-04-10T09:15:42.131Z,10.20
2018-04-10T09:18:09.667Z,8.73
2018-04-10T09:20:39.103Z,10.10
2018-04-10T09:23:06.635Z,8.70
2018-04-10T09:25:34.205Z,9.27
2018-04-10T09:28:01.762Z,8.80
2018-04-10T09:30:29.332Z,8.00
2018-04-10T09:32:56.861Z,7.73
2018-04-10T09:35:24.404Z,7.43
2018-04-10T09:37:52.717Z,6.93
2018-04-10T09:40:20.248Z,7.60
2018-04-10T09:42:47.796Z,8.47
2018-04-10T09:45:17.056Z,7.30
2018-04-10T09:47:44.612Z,8.90
2018-04-10T09:50:12.191Z,6.80
2018-04-10T09:52:39.684Z,7.47
2018-04-10T09:55:07.233Z,7.53
2018-04-10T09:57:34.763Z,7.17
2018-04-10T10:00:02.327Z,8.00
2018-04-10T10:02:29.846Z,7.60
2018-04-10T10:04:57.402Z,7.80
2018-04-10T10:07:25.893Z,7.40
2018-04-10T10:09:54.375Z,6.93
2018-04-10T10:12:21.933Z,6.97
2018-04-10T10:14:49.450Z,7.30
2018-04-10T10:17:17.030Z,7.27
2018-04-10T10:19:44.551Z,6.60
2018-04-10T10:22:12.108Z,7.07
2018-04-10T10:24:40.406Z,6.80
2018-04-10T10:27:08.728Z,7.07
2018-04-10T10:29:36.258Z,7.70
2018-04-10T10:32:03.784Z,6.83
2018-04-10T10:34:32.112Z,7.40
2018-04-10T10:36:59.639Z,8.07
2018-04-10T10:39:27.948Z,8.60
2018-04-10T10:41:55.474Z,8.00
2018-04-10T10:44:23.029Z,8.60
2018-04-10T10:46:50.563Z,8.63
2018-04-10T10:49:20.852Z,8.03
2018-04-10T10:51:48.387Z,8.40
2018-04-10T10:54:15.933Z,7.63
2018-04-10T10:56:43.471Z,8.73
2018-04-10T10:59:10.992Z,20.60
2018-04-10T11:01:38.540Z,9.30
2018-04-10T11:04:06.064Z,9.03
2018-04-10T11:06:33.640Z,10.50
2018-04-10T11:09:02.151Z,10.07
2018-04-10T11:11:30.693Z,9.37
2018-04-10T11:13:58.224Z,10.40
2018-04-10T11:16:26.572Z,10.23
2018-04-10T11:18:54.095Z,9.70
2018-04-10T11:21:23.567Z,9.10
2018-04-10T11:23:52.115Z,8.77
2018-04-10T11:26:19.687Z,8.90
2018-04-10T11:28:47.234Z,7.47
2018-04-10T11:31:14.773Z,5.73
2018-04-10T11:33:42.337Z,6.80
2018-04-10T11:36:09.880Z,6.13
2018-04-10T11:38:37.449Z,5.27
2018-04-10T11:41:05.644Z,5.53
2018-04-10T11:43:33.282Z,4.90
2018-04-10T11:46:00.810Z,4.40
2018-04-10T11:48:29.148Z,4.27
2018-04-10T11:50:56.708Z,4.37
2018-04-10T11:53:24.228Z,4.27
2018-04-10T11:55:51.800Z,4.50
2018-04-10T11:58:19.456Z,3.30
2018-04-10T12:00:48.006Z,3.00
2018-04-10T12:03:16.295Z,3.30
2018-04-10T12:05:45.568Z,3.07
2018-04-10T12:08:13.889Z,3.20
2018-04-10T12:10:41.632Z,2.20
2018-04-10T12:13:10.129Z,1.90
2018-04-10T12:15:45.028Z,2.03
2018-04-10T12:18:12.578Z,2.40
2018-04-10T12:20:41.096Z,2.30
2018-04-10T12:23:08.621Z,1.77
2018-04-10T12:25:36.145Z,1.67
2018-04-10T12:28:03.701Z,1.90
2018-04-10T12:30:32.188Z,1.70
2018-04-10T12:32:59.759Z,1.60
2018-04-10T12:35:27.289Z,1.70
2018-04-10T12:37:54.839Z,1.47
2018-04-10T12:40:22.401Z,1.60
2018-04-10T12:42:49.956Z,1.60
2018-04-10T12:45:17.489Z,1.60
2018-04-10T12:47:45.815Z,1.40
2018-04-10T12:50:13.346Z,1.90
2018-04-10T12:52:40.887Z,2.20
2018-04-10T12:55:10.160Z,1.93
2018-04-10T12:57:38.640Z,1.30
2018-04-10T13:00:06.198Z,2.20
2018-04-10T13:02:33.732Z,1.73
2018-04-10T13:05:01.379Z,2.23
2018-04-10T13:07:28.896Z,1.63
2018-04-10T13:09:57.214Z,2.20
2018-04-10T13:12:24.745Z,2.17
2018-04-10T13:14:52.304Z,2.00
2018-04-10T13:17:19.829Z,2.20
2018-04-10T13:19:47.353Z,3.03
2018-04-10T13:22:14.911Z,1.40
2018-04-10T13:24:42.439Z,1.77
2018-04-10T13:27:10.770Z,1.17
2018-04-10T13:29:39.247Z,1.20
2018-04-10T13:32:06.809Z,1.20
2018-04-10T13:34:34.335Z,1.40
2018-04-10T13:37:01.883Z,1.10
2018-04-10T13:39:29.396Z,1.20
2018-04-10T13:41:56.924Z,1.00
2018-04-10T13:44:24.476Z,1.20
2018-04-10T13:46:52.019Z,1.23
2018-04-10T13:49:19.566Z,1.47
2018-04-10T13:51:47.092Z,1.20
2018-04-10T13:54:16.629Z,1.20
2018-04-10T13:56:44.130Z,1.50
2018-04-10T13:59:11.673Z,1.60
2018-04-10T14:01:39.196Z,1.10
2018-04-10T14:04:07.483Z,1.00
2018-04-10T14:06:35.032Z,1.30
2018-04-10T14:09:02.559Z,1.00
2018-04-10T14:11:32.060Z,1.40
2018-04-10T14:13:59.584Z,1.20
2018-04-10T14:16:27.138Z,1.00
2018-04-10T14:18:54.667Z,1.20
2018-04-10T14:21:23.184Z,1.20
2018-04-10T14:23:50.700Z,1.17
2018-04-10T14:26:19.008Z,1.00
2018-04-10T14:28:46.547Z,0.90
2018-04-10T14:31:14.091Z,1.10
2018-04-10T14:33:42.413Z,1.00
2018-04-10T14:36:09.942Z,1.40
2018-04-10T14:38:38.255Z,0.93
2018-04-10T14:41:05.773Z,1.00
2018-04-10T14:43:34.097Z,1.10
2018-04-10T14:46:02.603Z,1.20
2018-04-10T14:48:30.129Z,0.93
2018-04-10T14:50:57.679Z,1.00
2018-04-10T14:53:25.244Z,1.00
2018-04-10T14:55:53.842Z,1.00
2018-04-10T14:58:22.344Z,1.30
2018-04-10T15:00:49.914Z,1.00
2018-04-10T15:03:17.425Z,1.00
2018-04-10T15:05:44.999Z,1.10
2018-04-10T15:08:12.543Z,1.07
2018-04-10T15:10:40.106Z,0.90
2018-04-10T15:13:07.665Z,1.03
2018-04-10T15:15:35.217Z,0.90
2018-04-10T15:18:02.777Z,1.20
2018-04-10T15:20:30.304Z,1.10
2018-04-10T15:22:59.593Z,1.23
2018-04-10T15:25:27.151Z,1.40
2018-04-10T15:27:55.501Z,1.20
2018-04-10T15:30:23.138Z,1.03
2018-04-10T15:32:52.658Z,1.10
2018-04-10T15:35:20.224Z,1.30
2018-04-10T15:37:47.815Z,1.10
2018-04-10T15:40:15.328Z,1.10
2018-04-10T15:42:42.850Z,1.03
2018-04-10T15:45:10.412Z,1.20
2018-04-10T15:47:37.938Z,1.60
2018-04-10T15:50:06.403Z,1.20
2018-04-10T15:52:34.903Z,0.90
2018-04-10T15:55:03.430Z,1.33
2018-04-10T15:57:30.948Z,1.10
2018-04-10T15:59:58.502Z,1.30
2018-04-10T16:02:26.047Z,1.63
2018-04-10T16:04:53.592Z,1.40
2018-04-10T16:07:21.116Z,1.37
2018-04-10T16:09:48.655Z,1.40
2018-04-10T16:12:16.258Z,1.43
2018-04-10T16:14:43.797Z,2.47
2018-04-10T16:17:11.362Z,2.97
2018-04-10T16:19:38.879Z,3.13
2018-04-10T16:22:06.446Z,1.47
2018-04-10T16:24:34.738Z,1.73
2018-04-10T16:27:02.302Z,1.70
2018-04-10T16:29:29.851Z,1.60
2018-04-10T16:31:57.418Z,1.20
2018-04-10T16:34:25.013Z,1.40
2018-04-10T16:36:52.533Z,1.47
2018-04-10T16:39:20.076Z,1.83
2018-04-10T16:41:47.596Z,2.80
2018-04-10T16:44:15.166Z,1.97
2018-04-10T16:46:42.702Z,2.00
2018-04-10T16:49:10.268Z,1.80
2018-04-10T16:51:37.790Z,1.87
2018-04-10T16:54:05.363Z,1.77
2018-04-10T16:56:32.905Z,5.37
2018-04-10T16:59:00.469Z,24.03
2018-04-10T17:01:27.988Z,5.20
2018-04-10T17:03:55.517Z,4.10
2018-04-10T17:06:23.078Z,15.70
2018-04-10T17:08:50.599Z,3.67
2018-04-10T17:11:18.155Z,2.00
2018-04-10T17:13:45.684Z,3.20
2018-04-10T17:16:13.232Z,2.37
2018-04-10T17:18:40.749Z,3.30
2018-04-10T17:21:08.313Z,3.80
2018-04-10T17:23:35.846Z,2.50
2018-04-10T17:26:04.172Z,6.03
2018-04-10T17:28:31.712Z,6.03
2018-04-10T17:30:59.254Z,2.40
2018-04-10T17:33:26.832Z,3.63
2018-04-10T17:35:54.364Z,2.93
2018-04-10T17:38:21.942Z,3.10
2018-04-10T17:40:49.463Z,2.60
2018-04-10T17:43:17.768Z,3.30
2018-04-10T17:45:45.333Z,3.57
2018-04-10T17:48:12.885Z,3.40
2018-04-10T17:50:41.385Z,3.80
2018-04-10T17:53:08.941Z,3.10
2018-04-10T17:55:36.456Z,3.23
2018-04-10T17:58:03.981Z,2.67
2018-04-10T18:00:31.551Z,2.47
2018-04-10T18:02:59.080Z,3.40
2018-04-10T18:05:26.639Z,3.20
2018-04-10T18:07:54.178Z,3.67
2018-04-10T18:10:21.733Z,2.90
2018-04-10T18:12:50.217Z,2.50
2018-04-10T18:15:17.782Z,2.60
2018-04-10T18:17:45.300Z,8.70
2018-04-10T18:20:12.864Z,6.63
2018-04-10T18:22:41.157Z,4.63
2018-04-10T18:25:08.684Z,4.40
2018-04-10T18:27:36.220Z,3.00
2018-04-10T18:30:03.737Z,3.80
2018-04-10T18:32:31.289Z,3.17
2018-04-10T18:34:58.796Z,4.00
2018-04-10T18:37:26.355Z,4.13
2018-04-10T18:39:53.864Z,2.90
2018-04-10T18:42:22.172Z,3.17
2018-04-10T18:44:50.660Z,3.53
2018-04-10T18:47:18.211Z,3.03
2018-04-10T18:49:45.745Z,2.60
2018-04-10T18:52:13.273Z,2.53
2018-04-10T18:54:40.828Z,3.17
2018-04-10T18:57:09.322Z,3.07
2018-04-10T18:59:36.883Z,3.40
2018-04-10T19:02:05.421Z,3.73
2018-04-10T19:04:32.959Z,2.30
2018-04-10T19:07:00.666Z,1.77
2018-04-10T19:09:28.691Z,1.93
2018-04-10T19:11:56.548Z,2.10
2018-04-10T19:14:24.077Z,2.13
2018-04-10T19:16:51.645Z,2.70
2018-04-10T19:19:19.942Z,2.60
2018-04-10T19:21:47.523Z,3.43
2018-04-10T19:24:15.036Z,2.23
2018-04-10T19:26:43.348Z,2.57
2018-04-10T19:29:10.864Z,4.53
2018-04-10T19:31:39.181Z,4.03
2018-04-10T19:34:06.708Z,5.07
2018-04-10T19:36:34.997Z,4.10
2018-04-10T19:39:02.558Z,4.03
2018-04-10T19:41:30.089Z,4.00
2018-04-10T19:43:58.928Z,3.50
2018-04-10T19:46:26.491Z,4.47
2018-04-10T19:48:54.060Z,3.50
2018-04-10T19:51:21.579Z,2.47
2018-04-10T19:53:50.098Z,2.97
2018-04-10T19:56:17.616Z,2.60
2018-04-10T19:58:45.301Z,2.23
2018-04-10T20:01:12.996Z,2.60
2018-04-10T20:03:40.522Z,2.70
2018-04-10T20:06:09.076Z,3.27
2018-04-10T20:08:36.604Z,2.90
2018-04-10T20:11:04.152Z,3.30
2018-04-10T20:13:31.672Z,2.67
2018-04-10T20:15:59.221Z,2.30
2018-04-10T20:18:27.042Z,1.97
2018-04-10T20:20:54.677Z,2.07
2018-04-10T20:23:22.475Z,2.00
2018-04-10T20:25:50.763Z,1.90
2018-04-10T20:28:19.076Z,1.70
2018-04-10T20:30:46.604Z,1.80
2018-04-10T20:33:14.343Z,1.70
2018-04-10T20:35:41.862Z,1.80
2018-04-10T20:38:09.401Z,1.73
2018-04-10T20:40:36.928Z,2.33
2018-04-10T20:43:04.502Z,2.57
2018-04-10T20:45:32.021Z,2.43
2018-04-10T20:47:59.796Z,1.90
2018-04-10T20:50:27.339Z,2.43
2018-04-10T20:52:54.855Z,1.87
2018-04-10T20:55:22.400Z,2.10
2018-04-10T20:57:49.931Z,2.40
2018-04-10T21:00:17.498Z,3.67
2018-04-10T21:02:45.024Z,4.63
2018-04-10T21:05:13.580Z,2.30
2018-04-10T21:07:41.100Z,2.20
2018-04-10T21:10:08.624Z,2.70
2018-04-10T21:12:36.180Z,2.50
2018-04-10T21:15:03.692Z,2.13
2018-04-10T21:17:31.995Z,2.40
2018-04-10T21:19:59.511Z,2.07
2018-04-10T21:22:27.052Z,5.43
2018-04-10T21:24:54.615Z,1.73
2018-04-10T21:27:22.484Z,1.93
2018-04-10T21:29:49.992Z,2.57
2018-04-10T21:32:17.511Z,1.87
2018-04-10T21:34:45.128Z,4.10
2018-04-10T21:37:12.650Z,2.70
2018-04-10T21:39:42.148Z,2.10
2018-04-10T21:42:09.684Z,2.40
2018-04-10T21:44:37.239Z,2.10
2018-04-10T21:47:04.760Z,2.93
2018-04-10T21:49:32.672Z,2.20
2018-04-10T21:52:00.220Z,2.60
2018-04-10T21:54:28.061Z,2.20
2018-04-10T21:56:56.615Z,2.00
2018-04-10T21:59:24.127Z,2.27
2018-04-10T22:01:51.884Z,5.63
2018-04-10T22:04:19.411Z,2.30
2018-04-10T22:06:46.960Z,2.43
2018-04-10T22:09:14.484Z,2.17
2018-04-10T22:11:42.033Z,2.27
2018-04-10T22:14:11.267Z,2.93
2018-04-10T22:16:38.804Z,2.67
2018-04-10T22:19:06.352Z,3.70
2018-04-10T22:21:33.872Z,10.43
2018-04-10T22:24:01.419Z,2.20
2018-04-10T22:26:29.094Z,3.20
2018-04-10T22:28:56.628Z,2.13
2018-04-10T22:31:24.136Z,2.00
2018-04-10T22:33:51.657Z,2.50
2018-04-10T22:36:19.192Z,2.30
2018-04-10T22:38:46.709Z,1.90
2018-04-10T22:41:15.053Z,5.90
2018-04-10T22:43:42.583Z,2.73
2018-04-10T22:46:10.124Z,2.23
2018-04-10T22:48:37.649Z,3.30
2018-04-10T22:51:05.197Z,2.57
2018-04-10T22:53:32.720Z,3.10
2018-04-10T22:56:00.288Z,2.70
2018-04-10T22:58:27.804Z,3.40
2018-04-10T23:00:55.328Z,2.27
2018-04-10T23:03:22.865Z,3.00
2018-04-10T23:05:50.414Z,2.27
2018-04-10T23:08:17.969Z,3.03
2018-04-10T23:10:45.490Z,2.70
2018-04-10T23:13:13.031Z,2.60
2018-04-10T23:15:40.564Z,3.13
2018-04-10T23:18:08.105Z,3.00
2018-04-10T23:20:36.421Z,6.37
2018-04-10T23:23:03.941Z,5.90
2018-04-10T23:25:32.261Z,3.40
2018-04-10T23:27:59.780Z,4.87
2018-04-10T23:30:28.089Z,2.70
2018-04-10T23:32:56.576Z,2.40
2018-04-10T23:35:24.113Z,2.43
2018-04-10T23:37:51.633Z,2.33
2018-04-10T23:40:19.951Z,2.60
2018-04-10T23:42:47.487Z,2.93
2018-04-10T23:45:15.780Z,2.33
2018-04-10T23:47:43.333Z,2.60
2018-04-10T23:50:10.857Z,2.60
2018-04-10T23:52:38.433Z,3.40
2018-04-10T23:55:05.944Z,2.67
2018-04-10T23:57:35.467Z,2.97
